APL Denmark — A8JX9 — position and weather

sailwx.info

Track history (hours):
 
Tides and Currents Weather Stations Pressure Air Temp Water Temp Dewpoint Dewpoint Depression Visibility Wind Speed Wind Dir Waves Ship Positions

APL Denmark

Last reported at 2017-Apr-30 13:00 UTC. Time now 2017-Apr-30 13:09 UTC.
Position N 51°53' E 004°26'.

Length 277 m; beam 40 m; draft 14 m.

Type: Ship. MMSI: 636091157.

Date/timePositionNaut miles runAvg speedWind from/ knotsBaromVisibWave heightAir tempDewpointWater temp
2017-Apr-30 13:00N 51°53' E 004°26'0 0.0
2017-Apr-30 12:30N 51°53' E 004°26'0 0.0
2017-Apr-30 11:59N 51°53' E 004°26'0 0.0
2017-Apr-30 11:30N 51°53' E 004°26'0 0.0
2017-Apr-30 10:59N 51°53' E 004°26'0 0.0
2017-Apr-30 10:30N 51°53' E 004°26'0 0.0
2017-Apr-30 10:00N 51°53' E 004°26'0 0.0
2017-Apr-30 09:30N 51°53' E 004°26'0 0.0
2017-Apr-30 09:00N 51°53' E 004°26'0 0.0
2017-Apr-30 08:30N 51°53' E 004°26'0 0.0
2017-Apr-30 08:00N 51°53' E 004°26'0 0.0
2017-Apr-30 07:29N 51°53' E 004°26'0 0.0
2017-Apr-30 07:00N 51°53' E 004°26'0 0.0
2017-Apr-30 06:30N 51°53' E 004°26'0 0.0
2017-Apr-30 06:00N 51°53' E 004°26'0 0.0
2017-Apr-30 05:29N 51°53' E 004°26'0 0.0
2017-Apr-30 05:00N 51°53' E 004°26'0 0.0
2017-Apr-30 04:30N 51°53' E 004°26'0 0.0
2017-Apr-30 04:00N 51°53' E 004°26'0 0.0
2017-Apr-30 03:30N 51°53' E 004°26'0 0.0
2017-Apr-30 02:57N 51°53' E 004°26'0 0.0
2017-Apr-30 02:29N 51°53' E 004°26'0 0.0
2017-Apr-30 02:00N 51°53' E 004°26'0 0.0
2017-Apr-30 01:30N 51°53' E 004°26'0 0.0
2017-Apr-30 01:00N 51°53' E 004°26'0 0.0
2017-Apr-30 00:30N 51°53' E 004°26'0 0.0
2017-Apr-29 23:59N 51°53' E 004°26'0 0.0
2017-Apr-29 23:30N 51°53' E 004°26'0 0.0
2017-Apr-29 23:00N 51°53' E 004°26'0 0.0
2017-Apr-29 22:30N 51°53' E 004°26'0 0.0
2017-Apr-29 21:59N 51°53' E 004°26'0 0.0
2017-Apr-29 21:30N 51°53' E 004°26'0 0.8
2017-Apr-29 21:00N 51°54' E 004°26'1 1.9
2017-Apr-29 20:30N 51°54' E 004°25'3 6.4
2017-Apr-29 20:00N 51°54' E 004°20'4 7.8
2017-Apr-29 19:30N 51°55' E 004°14'5 9.8
2017-Apr-29 19:00N 51°58' E 004°08'612.8
2017-Apr-29 18:30N 52°00' E 003°58'612.5
2017-Apr-29 18:00N 52°02' E 003°48'815.1
2017-Apr-29 17:30N 52°09' E 003°46'918.8
2017-Apr-29 17:00N 52°19' E 003°47'918.5
2017-Apr-29 16:30N 52°28' E 003°50'918.7
2017-Apr-29 16:00N 52°37' E 003°53'1019.3
2017-Apr-29 15:30N 52°46' E 003°56'1019.9
2017-Apr-29 15:00N 52°56' E 003°60'2121.1
2017-Apr-29 14:00N 53°11' E 004°26'13518.5
2017-Apr-29 06:42N 54°01' E 007°57'418.8
2017-Apr-29 06:30N 54°01' E 008°03'714.5
2017-Apr-29 06:00N 54°01' E 008°15'612.8
2017-Apr-29 05:30N 53°59' E 008°25'918.1
2017-Apr-29 05:00N 53°56' E 008°40'713.6
2017-Apr-29 04:30N 53°51' E 008°47'815.8
2017-Apr-29 04:01N 53°51' E 009°00'611.8
2017-Apr-29 03:30N 53°53' E 009°10'611.3
2017-Apr-29 03:01N 53°51' E 009°19'612.8
2017-Apr-29 02:30N 53°45' E 009°24'510.0
2017-Apr-29 02:01N 53°42' E 009°30'5 9.9
2017-Apr-29 01:30N 53°37' E 009°33'510.9
2017-Apr-29 01:00N 53°34' E 009°41'4 8.7
2017-Apr-29 00:30N 53°33' E 009°48'4 7.8
2017-Apr-29 00:00N 53°32' E 009°54'0 0.0
2017-Apr-28 23:25N 53°32' E 009°55'0 0.0
2017-Apr-28 22:55N 53°32' E 009°55'0 0.0
2017-Apr-28 22:25N 53°32' E 009°55'0 0.0
2017-Apr-28 21:55N 53°32' E 009°55'0 0.0
2017-Apr-28 21:25N 53°32' E 009°55'0 0.0
2017-Apr-28 20:55N 53°32' E 009°55'0 0.0
2017-Apr-28 20:25N 53°32' E 009°55'0 0.0
2017-Apr-28 19:55N 53°32' E 009°55'0 0.0
2017-Apr-28 19:25N 53°32' E 009°55'0 0.0
2017-Apr-28 18:55N 53°32' E 009°55'0 0.0
2017-Apr-28 18:25N 53°32' E 009°55'0 0.0
2017-Apr-28 17:55N 53°32' E 009°55'0 0.0
2017-Apr-28 17:25N 53°32' E 009°55'0 0.0
2017-Apr-28 16:55N 53°32' E 009°55'0 0.0
2017-Apr-28 16:25N 53°32' E 009°55'0 0.0
2017-Apr-28 15:55N 53°32' E 009°55'0 0.0
2017-Apr-28 15:25N 53°32' E 009°55'0 0.0
2017-Apr-28 14:55N 53°32' E 009°55'0 0.0
2017-Apr-28 13:55N 53°32' E 009°55'0 0.0
2017-Apr-28 13:25N 53°32' E 009°55'0 0.0
2017-Apr-28 12:55N 53°32' E 009°55'0 0.0
2017-Apr-28 12:25N 53°32' E 009°54'0 0.0
2017-Apr-28 11:55N 53°32' E 009°55'0 0.0
2017-Apr-28 11:25N 53°32' E 009°55'0 0.0
2017-Apr-28 10:55N 53°32' E 009°55'0 0.0
2017-Apr-28 10:25N 53°32' E 009°55'0 0.0
2017-Apr-28 09:55N 53°32' E 009°55'0 0.0
2017-Apr-28 09:25N 53°32' E 009°55'0 0.0
2017-Apr-28 08:55N 53°32' E 009°55'0 0.0
2017-Apr-28 08:25N 53°32' E 009°55'0 0.0
2017-Apr-28 07:55N 53°32' E 009°55'0 0.0
2017-Apr-28 07:25N 53°32' E 009°55'0 0.0
2017-Apr-28 06:55N 53°32' E 009°55'0 0.0
2017-Apr-28 06:25N 53°32' E 009°55'0 0.0
2017-Apr-28 05:55N 53°32' E 009°55'0 0.0
2017-Apr-28 05:25N 53°32' E 009°55'0 0.0
2017-Apr-28 04:55N 53°32' E 009°55'0 0.0
2017-Apr-28 04:25N 53°32' E 009°55'0 0.0
2017-Apr-28 03:56N 53°32' E 009°54'1 1.9
2017-Apr-28 03:31N 53°32' E 009°53'4 8.7
2017-Apr-28 03:01N 53°34' E 009°46'611.4
2017-Apr-28 02:30N 53°35' E 009°37'611.6
2017-Apr-28 02:00N 53°40' E 009°31'510.3
2017-Apr-28 01:30N 53°44' E 009°26'510.7
2017-Apr-28 01:00N 53°49' E 009°22'611.6
2017-Apr-28 00:30N 53°53' E 009°15'611.3
2017-Apr-28 00:00N 53°52' E 009°05'816.7
2017-Apr-27 23:31N 53°50' E 008°51'611.9
2017-Apr-27 23:00N 53°53' E 008°42'611.8
2017-Apr-27 22:30N 53°58' E 008°36'714.2
2017-Apr-27 22:00N 53°59' E 008°24'713.0
2017-Apr-27 21:30N 53°60' E 008°13'510.5
2017-Apr-27 21:00N 53°59' E 008°04'612.4
2017-Apr-27 20:30N 53°58' E 007°54'613.1
2017-Apr-27 20:00N 53°56' E 007°43'9013.3
2017-Apr-27 13:16N 53°32' E 005°17'512.8
2017-Apr-27 12:54N 53°30' E 005°09'512.8
2017-Apr-27 12:30N 53°29' E 005°01'613.1
2017-Apr-27 12:00N 53°26' E 004°51'1512.3
2017-Apr-27 10:47N 53°15' E 004°35'413.0
2017-Apr-27 10:28N 53°11' E 004°32'613.0
2017-Apr-27 10:00N 53°06' E 004°28'612.4
2017-Apr-27 09:30N 53°00' E 004°23'611.7
2017-Apr-27 09:00N 52°55' E 004°20'611.7
2017-Apr-27 08:31N 52°50' E 004°14'612.1
2017-Apr-27 08:00N 52°45' E 004°08'612.4
2017-Apr-27 07:30N 52°40' E 004°02'611.5
2017-Apr-27 07:00N 52°36' E 003°55'611.4
2017-Apr-27 06:30N 52°32' E 003°48'611.5
2017-Apr-27 05:59N 52°29' E 003°40'612.1
2017-Apr-27 05:28N 52°25' E 003°33'6012.0
2017-Apr-27 00:29N 51°53' E 002°09'511.6
2017-Apr-27 00:00N 51°51' E 002°01'611.2
2017-Apr-26 23:30N 51°49' E 001°53'510.7
2017-Apr-26 23:00N 51°49' E 001°45'5 9.1
2017-Apr-26 22:30N 51°49' E 001°37'510.7
2017-Apr-26 22:00N 51°45' E 001°31'612.1
2017-Apr-26 21:30N 51°40' E 001°26'612.3
2017-Apr-26 21:00N 51°36' E 001°18'611.1
2017-Apr-26 20:30N 51°34' E 001°11'510.7
2017-Apr-26 20:00N 51°31' E 001°03'611.5
2017-Apr-26 19:30N 51°29' E 000°55'713.6
2017-Apr-26 19:00N 51°30' E 000°44'714.3
2017-Apr-26 18:31N 51°30' E 000°32'1 2.7
2017-Apr-26 18:01N 51°30' E 000°30'0 0.0
2017-Apr-26 17:31N 51°30' E 000°30'0 0.0
2017-Apr-26 17:01N 51°30' E 000°30'0 0.0
2017-Apr-26 16:31N 51°30' E 000°30'0 0.0
2017-Apr-26 16:01N 51°30' E 000°30'0 0.0
2017-Apr-26 15:31N 51°30' E 000°30'0 0.0
2017-Apr-26 15:01N 51°30' E 000°30'0 0.0
2017-Apr-26 14:30N 51°30' E 000°30'0 0.0
2017-Apr-26 13:31N 51°30' E 000°30'0 0.0
2017-Apr-26 13:00N 51°30' E 000°30'0 0.0
2017-Apr-26 12:31N 51°30' E 000°30'0 0.0
2017-Apr-26 12:01N 51°30' E 000°30'0 0.0
2017-Apr-26 11:30N 51°30' E 000°30'0 0.0
2017-Apr-26 11:01N 51°30' E 000°30'0 0.0
2017-Apr-26 10:31N 51°30' E 000°30'0 0.0
2017-Apr-26 10:01N 51°30' E 000°30'0 0.0
2017-Apr-26 09:31N 51°30' E 000°30'0 0.0
2017-Apr-26 09:01N 51°30' E 000°30'0 0.0
2017-Apr-26 08:31N 51°30' E 000°30'0 0.0
2017-Apr-26 08:01N 51°30' E 000°30'0 0.0
2017-Apr-26 07:31N 51°30' E 000°30'0 0.0
2017-Apr-26 07:00N 51°30' E 000°30'0 0.0
2017-Apr-26 06:31N 51°30' E 000°30'0 0.0
2017-Apr-26 06:01N 51°30' E 000°30'0 0.0
2017-Apr-26 05:31N 51°30' E 000°30'0 0.0
2017-Apr-26 05:01N 51°30' E 000°30'0 0.0
2017-Apr-26 04:31N 51°30' E 000°30'0 0.0
2017-Apr-26 04:01N 51°30' E 000°30'0 0.1
2017-Apr-26 03:30N 51°30' E 000°30'2 3.2
2017-Apr-26 03:00N 51°30' E 000°33'4 8.2
2017-Apr-26 02:30N 51°30' E 000°39'612.4
2017-Apr-26 02:00N 51°29' E 000°49'612.6
2017-Apr-26 01:30N 51°29' E 000°59'714.0
2017-Apr-26 01:00N 51°33' E 001°09'713.9
2017-Apr-26 00:31N 51°37' E 001°18'714.5
2017-Apr-26 00:01N 51°42' E 001°27'714.7
2017-Apr-25 23:31N 51°47' E 001°34'713.1
2017-Apr-25 23:00N 51°52' E 001°42'510.9
2017-Apr-25 22:30N 51°57' E 001°45'713.1
2017-Apr-25 22:00N 52°04' E 001°48'612.7
2017-Apr-25 21:30N 52°07' E 001°56'613.0
2017-Apr-25 21:00N 52°11' E 002°04'9 0.2
2017-Apr-23 17:35N 52°20' E 002°06'0 0.3
2017-Apr-23 17:11N 52°21' E 002°06'0 0.3
2017-Apr-23 16:35N 52°21' E 002°06'0 0.1
2017-Apr-23 16:20N 52°21' E 002°06'  
2017-Apr-20 20:11N 52°21' E 002°06'0 0.0
2017-Apr-20 19:53N 52°21' E 002°06'0 0.0
2017-Apr-20 19:29N 52°21' E 002°06'0 0.0
2017-Apr-20 18:56N 52°21' E 002°06'0 0.0
2017-Apr-20 17:38N 52°21' E 002°06'0 0.2
2017-Apr-20 17:23N 52°21' E 002°06'  
Track history (hours):
 
Tides and Currents Weather Stations Pressure Air Temp Water Temp Dewpoint Dewpoint Depression Visibility Wind Speed Wind Dir Waves Ship Positions

APL Denmark

Last reported at 2017-Apr-30 13:00 UTC. Time now 2017-Apr-30 13:09 UTC.
Position N 51°53' E 004°26'.

Length 277 m; beam 40 m; draft 14 m.

Type: Ship. MMSI: 636091157.

Date/timePositionNaut miles runAvg speedWind from/ knotsBaromVisibWave heightAir tempDewpointWater temp
2017-Apr-30 13:00N 51°53' E 004°26'0 0.0
2017-Apr-30 12:30N 51°53' E 004°26'0 0.0
2017-Apr-30 11:59N 51°53' E 004°26'0 0.0
2017-Apr-30 11:30N 51°53' E 004°26'0 0.0
2017-Apr-30 10:59N 51°53' E 004°26'0 0.0
2017-Apr-30 10:30N 51°53' E 004°26'0 0.0
2017-Apr-30 10:00N 51°53' E 004°26'0 0.0
2017-Apr-30 09:30N 51°53' E 004°26'0 0.0
2017-Apr-30 09:00N 51°53' E 004°26'0 0.0
2017-Apr-30 08:30N 51°53' E 004°26'0 0.0
2017-Apr-30 08:00N 51°53' E 004°26'0 0.0
2017-Apr-30 07:29N 51°53' E 004°26'0 0.0
2017-Apr-30 07:00N 51°53' E 004°26'0 0.0
2017-Apr-30 06:30N 51°53' E 004°26'0 0.0
2017-Apr-30 06:00N 51°53' E 004°26'0 0.0
2017-Apr-30 05:29N 51°53' E 004°26'0 0.0
2017-Apr-30 05:00N 51°53' E 004°26'0 0.0
2017-Apr-30 04:30N 51°53' E 004°26'0 0.0
2017-Apr-30 04:00N 51°53' E 004°26'0 0.0
2017-Apr-30 03:30N 51°53' E 004°26'0 0.0
2017-Apr-30 02:57N 51°53' E 004°26'0 0.0
2017-Apr-30 02:29N 51°53' E 004°26'0 0.0
2017-Apr-30 02:00N 51°53' E 004°26'0 0.0
2017-Apr-30 01:30N 51°53' E 004°26'0 0.0
2017-Apr-30 01:00N 51°53' E 004°26'0 0.0
2017-Apr-30 00:30N 51°53' E 004°26'0 0.0
2017-Apr-29 23:59N 51°53' E 004°26'0 0.0
2017-Apr-29 23:30N 51°53' E 004°26'0 0.0
2017-Apr-29 23:00N 51°53' E 004°26'0 0.0
2017-Apr-29 22:30N 51°53' E 004°26'0 0.0
2017-Apr-29 21:59N 51°53' E 004°26'0 0.0
2017-Apr-29 21:30N 51°53' E 004°26'0 0.8
2017-Apr-29 21:00N 51°54' E 004°26'1 1.9
2017-Apr-29 20:30N 51°54' E 004°25'3 6.4
2017-Apr-29 20:00N 51°54' E 004°20'4 7.8
2017-Apr-29 19:30N 51°55' E 004°14'5 9.8
2017-Apr-29 19:00N 51°58' E 004°08'612.8
2017-Apr-29 18:30N 52°00' E 003°58'612.5
2017-Apr-29 18:00N 52°02' E 003°48'815.1
2017-Apr-29 17:30N 52°09' E 003°46'918.8
2017-Apr-29 17:00N 52°19' E 003°47'918.5
2017-Apr-29 16:30N 52°28' E 003°50'918.7
2017-Apr-29 16:00N 52°37' E 003°53'1019.3
2017-Apr-29 15:30N 52°46' E 003°56'1019.9
2017-Apr-29 15:00N 52°56' E 003°60'2121.1
2017-Apr-29 14:00N 53°11' E 004°26'13518.5
2017-Apr-29 06:42N 54°01' E 007°57'418.8
2017-Apr-29 06:30N 54°01' E 008°03'714.5
2017-Apr-29 06:00N 54°01' E 008°15'612.8
2017-Apr-29 05:30N 53°59' E 008°25'918.1
2017-Apr-29 05:00N 53°56' E 008°40'713.6
2017-Apr-29 04:30N 53°51' E 008°47'815.8
2017-Apr-29 04:01N 53°51' E 009°00'611.8
2017-Apr-29 03:30N 53°53' E 009°10'611.3
2017-Apr-29 03:01N 53°51' E 009°19'612.8
2017-Apr-29 02:30N 53°45' E 009°24'510.0
2017-Apr-29 02:01N 53°42' E 009°30'5 9.9
2017-Apr-29 01:30N 53°37' E 009°33'510.9
2017-Apr-29 01:00N 53°34' E 009°41'4 8.7
2017-Apr-29 00:30N 53°33' E 009°48'4 7.8
2017-Apr-29 00:00N 53°32' E 009°54'0 0.0
2017-Apr-28 23:25N 53°32' E 009°55'0 0.0
2017-Apr-28 22:55N 53°32' E 009°55'0 0.0
2017-Apr-28 22:25N 53°32' E 009°55'0 0.0
2017-Apr-28 21:55N 53°32' E 009°55'0 0.0
2017-Apr-28 21:25N 53°32' E 009°55'0 0.0
2017-Apr-28 20:55N 53°32' E 009°55'0 0.0
2017-Apr-28 20:25N 53°32' E 009°55'0 0.0
2017-Apr-28 19:55N 53°32' E 009°55'0 0.0
2017-Apr-28 19:25N 53°32' E 009°55'0 0.0
2017-Apr-28 18:55N 53°32' E 009°55'0 0.0
2017-Apr-28 18:25N 53°32' E 009°55'0 0.0
2017-Apr-28 17:55N 53°32' E 009°55'0 0.0
2017-Apr-28 17:25N 53°32' E 009°55'0 0.0
2017-Apr-28 16:55N 53°32' E 009°55'0 0.0
2017-Apr-28 16:25N 53°32' E 009°55'0 0.0
2017-Apr-28 15:55N 53°32' E 009°55'0 0.0
2017-Apr-28 15:25N 53°32' E 009°55'0 0.0
2017-Apr-28 14:55N 53°32' E 009°55'0 0.0
2017-Apr-28 13:55N 53°32' E 009°55'0 0.0
2017-Apr-28 13:25N 53°32' E 009°55'0 0.0
2017-Apr-28 12:55N 53°32' E 009°55'0 0.0
2017-Apr-28 12:25N 53°32' E 009°54'0 0.0
2017-Apr-28 11:55N 53°32' E 009°55'0 0.0
2017-Apr-28 11:25N 53°32' E 009°55'0 0.0
2017-Apr-28 10:55N 53°32' E 009°55'0 0.0
2017-Apr-28 10:25N 53°32' E 009°55'0 0.0
2017-Apr-28 09:55N 53°32' E 009°55'0 0.0
2017-Apr-28 09:25N 53°32' E 009°55'0 0.0
2017-Apr-28 08:55N 53°32' E 009°55'0 0.0
2017-Apr-28 08:25N 53°32' E 009°55'0 0.0
2017-Apr-28 07:55N 53°32' E 009°55'0 0.0
2017-Apr-28 07:25N 53°32' E 009°55'0 0.0
2017-Apr-28 06:55N 53°32' E 009°55'0 0.0
2017-Apr-28 06:25N 53°32' E 009°55'0 0.0
2017-Apr-28 05:55N 53°32' E 009°55'0 0.0
2017-Apr-28 05:25N 53°32' E 009°55'0 0.0
2017-Apr-28 04:55N 53°32' E 009°55'0 0.0
2017-Apr-28 04:25N 53°32' E 009°55'0 0.0
2017-Apr-28 03:56N 53°32' E 009°54'1 1.9
2017-Apr-28 03:31N 53°32' E 009°53'4 8.7
2017-Apr-28 03:01N 53°34' E 009°46'611.4
2017-Apr-28 02:30N 53°35' E 009°37'611.6
2017-Apr-28 02:00N 53°40' E 009°31'510.3
2017-Apr-28 01:30N 53°44' E 009°26'510.7
2017-Apr-28 01:00N 53°49' E 009°22'611.6
2017-Apr-28 00:30N 53°53' E 009°15'611.3
2017-Apr-28 00:00N 53°52' E 009°05'816.7
2017-Apr-27 23:31N 53°50' E 008°51'611.9
2017-Apr-27 23:00N 53°53' E 008°42'611.8
2017-Apr-27 22:30N 53°58' E 008°36'714.2
2017-Apr-27 22:00N 53°59' E 008°24'713.0
2017-Apr-27 21:30N 53°60' E 008°13'510.5
2017-Apr-27 21:00N 53°59' E 008°04'612.4
2017-Apr-27 20:30N 53°58' E 007°54'613.1
2017-Apr-27 20:00N 53°56' E 007°43'9013.3
2017-Apr-27 13:16N 53°32' E 005°17'512.8
2017-Apr-27 12:54N 53°30' E 005°09'512.8
2017-Apr-27 12:30N 53°29' E 005°01'613.1
2017-Apr-27 12:00N 53°26' E 004°51'1512.3
2017-Apr-27 10:47N 53°15' E 004°35'413.0
2017-Apr-27 10:28N 53°11' E 004°32'613.0
2017-Apr-27 10:00N 53°06' E 004°28'612.4
2017-Apr-27 09:30N 53°00' E 004°23'611.7
2017-Apr-27 09:00N 52°55' E 004°20'611.7
2017-Apr-27 08:31N 52°50' E 004°14'612.1
2017-Apr-27 08:00N 52°45' E 004°08'612.4
2017-Apr-27 07:30N 52°40' E 004°02'611.5
2017-Apr-27 07:00N 52°36' E 003°55'611.4
2017-Apr-27 06:30N 52°32' E 003°48'611.5
2017-Apr-27 05:59N 52°29' E 003°40'612.1
2017-Apr-27 05:28N 52°25' E 003°33'6012.0
2017-Apr-27 00:29N 51°53' E 002°09'511.6
2017-Apr-27 00:00N 51°51' E 002°01'611.2
2017-Apr-26 23:30N 51°49' E 001°53'510.7
2017-Apr-26 23:00N 51°49' E 001°45'5 9.1
2017-Apr-26 22:30N 51°49' E 001°37'510.7
2017-Apr-26 22:00N 51°45' E 001°31'612.1
2017-Apr-26 21:30N 51°40' E 001°26'612.3
2017-Apr-26 21:00N 51°36' E 001°18'611.1
2017-Apr-26 20:30N 51°34' E 001°11'510.7
2017-Apr-26 20:00N 51°31' E 001°03'611.5
2017-Apr-26 19:30N 51°29' E 000°55'713.6
2017-Apr-26 19:00N 51°30' E 000°44'714.3
2017-Apr-26 18:31N 51°30' E 000°32'1 2.7
2017-Apr-26 18:01N 51°30' E 000°30'0 0.0
2017-Apr-26 17:31N 51°30' E 000°30'0 0.0
2017-Apr-26 17:01N 51°30' E 000°30'0 0.0
2017-Apr-26 16:31N 51°30' E 000°30'0 0.0
2017-Apr-26 16:01N 51°30' E 000°30'0 0.0
2017-Apr-26 15:31N 51°30' E 000°30'0 0.0
2017-Apr-26 15:01N 51°30' E 000°30'0 0.0
2017-Apr-26 14:30N 51°30' E 000°30'0 0.0
2017-Apr-26 13:31N 51°30' E 000°30'0 0.0
2017-Apr-26 13:00N 51°30' E 000°30'0 0.0
2017-Apr-26 12:31N 51°30' E 000°30'0 0.0
2017-Apr-26 12:01N 51°30' E 000°30'0 0.0
2017-Apr-26 11:30N 51°30' E 000°30'0 0.0
2017-Apr-26 11:01N 51°30' E 000°30'0 0.0
2017-Apr-26 10:31N 51°30' E 000°30'0 0.0
2017-Apr-26 10:01N 51°30' E 000°30'0 0.0
2017-Apr-26 09:31N 51°30' E 000°30'0 0.0
2017-Apr-26 09:01N 51°30' E 000°30'0 0.0
2017-Apr-26 08:31N 51°30' E 000°30'0 0.0
2017-Apr-26 08:01N 51°30' E 000°30'0 0.0
2017-Apr-26 07:31N 51°30' E 000°30'0 0.0
2017-Apr-26 07:00N 51°30' E 000°30'0 0.0
2017-Apr-26 06:31N 51°30' E 000°30'0 0.0
2017-Apr-26 06:01N 51°30' E 000°30'0 0.0
2017-Apr-26 05:31N 51°30' E 000°30'0 0.0
2017-Apr-26 05:01N 51°30' E 000°30'0 0.0
2017-Apr-26 04:31N 51°30' E 000°30'0 0.0
2017-Apr-26 04:01N 51°30' E 000°30'0 0.1
2017-Apr-26 03:30N 51°30' E 000°30'2 3.2
2017-Apr-26 03:00N 51°30' E 000°33'4 8.2
2017-Apr-26 02:30N 51°30' E 000°39'612.4
2017-Apr-26 02:00N 51°29' E 000°49'612.6
2017-Apr-26 01:30N 51°29' E 000°59'714.0
2017-Apr-26 01:00N 51°33' E 001°09'713.9
2017-Apr-26 00:31N 51°37' E 001°18'714.5
2017-Apr-26 00:01N 51°42' E 001°27'714.7
2017-Apr-25 23:31N 51°47' E 001°34'713.1
2017-Apr-25 23:00N 51°52' E 001°42'510.9
2017-Apr-25 22:30N 51°57' E 001°45'713.1
2017-Apr-25 22:00N 52°04' E 001°48'612.7
2017-Apr-25 21:30N 52°07' E 001°56'613.0
2017-Apr-25 21:00N 52°11' E 002°04'9 0.2
2017-Apr-23 17:35N 52°20' E 002°06'0 0.3
2017-Apr-23 17:11N 52°21' E 002°06'0 0.3
2017-Apr-23 16:35N 52°21' E 002°06'0 0.1
2017-Apr-23 16:20N 52°21' E 002°06'  
2017-Apr-20 20:11N 52°21' E 002°06'0 0.0
2017-Apr-20 19:53N 52°21' E 002°06'0 0.0
2017-Apr-20 19:29N 52°21' E 002°06'0 0.0
2017-Apr-20 18:56N 52°21' E 002°06'0 0.0
2017-Apr-20 17:38N 52°21' E 002°06'0 0.2
2017-Apr-20 17:23N 52°21' E 002°06'  

Dump ship's entire track history